createdAt,value
2022-12-17T00:00:44.851Z,15.75
2022-12-17T00:01:47.375Z,15.86
2022-12-17T00:02:50.117Z,15.82
2022-12-17T00:03:53.457Z,16.06
2022-12-17T00:04:57.823Z,17.67
2022-12-17T00:06:09.002Z,17.90
2022-12-17T00:07:12.185Z,14.73
2022-12-17T00:08:14.800Z,18.35
2022-12-17T00:09:17.425Z,17.51
2022-12-17T00:10:19.994Z,13.53
2022-12-17T00:11:22.971Z,17.51
2022-12-17T00:12:25.534Z,21.22
2022-12-17T00:13:28.102Z,20.79
2022-12-17T00:14:30.584Z,19.67
2022-12-17T00:15:33.132Z,19.47
2022-12-17T00:16:35.857Z,15.08
2022-12-17T00:17:38.572Z,16.34
2022-12-17T00:18:41.243Z,16.57
2022-12-17T00:19:43.910Z,15.51
2022-12-17T00:20:46.587Z,18.38
2022-12-17T00:21:49.162Z,18.27
2022-12-17T00:22:51.823Z,14.56
2022-12-17T00:23:56.223Z,11.51
2022-12-17T00:24:59.401Z,12.52
2022-12-17T00:26:02.794Z,12.62
2022-12-17T00:27:05.671Z,10.43
2022-12-17T00:28:08.640Z,9.58
2022-12-17T00:29:11.431Z,10.21
2022-12-17T00:30:13.994Z,12.18
2022-12-17T00:31:16.818Z,11.34
2022-12-17T00:32:19.558Z,12.02
2022-12-17T00:33:22.317Z,13.48
2022-12-17T00:34:25.280Z,12.20
2022-12-17T00:35:28.062Z,13.18
2022-12-17T00:36:31.348Z,9.25
2022-12-17T00:37:34.535Z,10.62
2022-12-17T00:38:37.302Z,8.98
2022-12-17T00:39:40.568Z,10.95
2022-12-17T00:40:43.567Z,10.99
2022-12-17T00:41:46.335Z,11.22
2022-12-17T00:42:49.002Z,9.48
2022-12-17T00:43:51.987Z,11.77
2022-12-17T00:44:54.970Z,12.07
2022-12-17T00:45:59.167Z,10.96
2022-12-17T00:47:02.135Z,11.16
2022-12-17T00:48:05.023Z,11.55
2022-12-17T00:49:07.793Z,14.45
2022-12-17T00:50:10.565Z,14.58
2022-12-17T00:51:13.644Z,15.28
2022-12-17T00:52:16.417Z,17.45
2022-12-17T00:53:19.393Z,16.96
2022-12-17T00:54:22.470Z,13.86
2022-12-17T00:55:25.242Z,18.23
2022-12-17T00:56:28.305Z,15.79
2022-12-17T00:57:31.283Z,14.75
2022-12-17T00:58:34.663Z,14.12
2022-12-17T00:59:37.848Z,13.18
2022-12-17T01:00:41.131Z,15.77
2022-12-17T01:01:44.689Z,15.59
2022-12-17T01:02:48.454Z,15.51
2022-12-17T01:03:51.496Z,15.99
2022-12-17T01:04:55.004Z,17.89
2022-12-17T01:05:59.413Z,17.82
2022-12-17T01:07:02.295Z,17.06
2022-12-17T01:08:05.066Z,15.18
2022-12-17T01:09:08.255Z,18.72
2022-12-17T01:10:11.131Z,19.14
2022-12-17T01:11:13.994Z,17.33
2022-12-17T01:12:16.873Z,15.78
2022-12-17T01:13:19.746Z,18.91
2022-12-17T01:14:22.734Z,19.24
2022-12-17T01:15:25.694Z,21.55
2022-12-17T01:16:28.622Z,16.61
2022-12-17T01:17:31.449Z,19.19
2022-12-17T01:18:34.213Z,17.77
2022-12-17T01:19:36.884Z,18.93
2022-12-17T01:20:39.553Z,18.26
2022-12-17T01:21:42.218Z,16.06
2022-12-17T01:22:44.811Z,14.30
2022-12-17T01:23:47.270Z,13.48
2022-12-17T01:24:49.945Z,11.12
2022-12-17T01:25:52.500Z,14.42
2022-12-17T01:26:55.163Z,15.27
2022-12-17T01:27:59.060Z,15.55
2022-12-17T01:29:02.049Z,14.52
2022-12-17T01:30:05.121Z,17.25
2022-12-17T01:31:08.372Z,18.29
2022-12-17T01:32:11.264Z,16.72
2022-12-17T01:33:14.153Z,15.68
2022-12-17T01:34:17.031Z,16.58
2022-12-17T01:35:20.317Z,17.15
2022-12-17T01:36:23.180Z,17.46
2022-12-17T01:37:26.354Z,19.60
2022-12-17T01:38:29.756Z,19.52
2022-12-17T01:39:33.233Z,16.76
2022-12-17T01:40:36.556Z,19.75
2022-12-17T01:41:39.306Z,15.36
2022-12-17T01:42:42.199Z,19.58
2022-12-17T01:43:45.053Z,16.86
2022-12-17T01:44:47.825Z,18.40
2022-12-17T01:45:50.956Z,18.93
2022-12-17T01:46:54.178Z,20.10
2022-12-17T01:47:57.361Z,20.92
2022-12-17T01:49:01.055Z,19.43
2022-12-17T01:50:04.239Z,22.15
2022-12-17T01:51:07.211Z,18.44
2022-12-17T01:52:10.391Z,22.82
2022-12-17T01:53:13.363Z,19.98
2022-12-17T01:54:16.558Z,19.77
2022-12-17T01:55:19.724Z,22.53
2022-12-17T01:56:23.425Z,23.91
2022-12-17T01:57:26.711Z,23.47
2022-12-17T01:58:29.892Z,23.61
2022-12-17T01:59:33.376Z,21.02
2022-12-17T02:00:36.241Z,18.66
2022-12-17T02:01:39.495Z,21.60
2022-12-17T02:02:42.788Z,18.34
2022-12-17T02:03:46.207Z,19.59
2022-12-17T02:04:49.289Z,19.85
2022-12-17T02:05:52.182Z,11.52
2022-12-17T02:06:55.361Z,10.79
2022-12-17T02:07:58.233Z,13.57
2022-12-17T02:09:01.109Z,14.72
2022-12-17T02:10:03.881Z,11.21
2022-12-17T02:11:06.864Z,11.23
2022-12-17T02:12:09.734Z,12.74
2022-12-17T02:13:12.524Z,16.15
2022-12-17T02:14:15.590Z,12.12
2022-12-17T02:15:18.252Z,9.49
2022-12-17T02:16:21.065Z,9.48
2022-12-17T02:17:23.991Z,12.81
2022-12-17T02:18:27.073Z,13.50
2022-12-17T02:19:29.552Z,13.92
2022-12-17T02:20:32.220Z,10.86
2022-12-17T02:21:34.991Z,8.12
2022-12-17T02:22:37.863Z,12.82
2022-12-17T02:23:40.531Z,10.34
2022-12-17T02:24:43.413Z,11.48
2022-12-17T02:25:46.292Z,14.01
2022-12-17T02:26:49.084Z,12.38
2022-12-17T02:27:52.218Z,10.14
2022-12-17T02:28:54.930Z,11.35
2022-12-17T02:29:57.791Z,13.88
2022-12-17T02:31:00.852Z,12.96
2022-12-17T02:32:03.940Z,16.14
2022-12-17T02:33:07.511Z,16.34
2022-12-17T02:34:10.421Z,11.23
2022-12-17T02:35:13.569Z,12.83
2022-12-17T02:36:16.552Z,11.90
2022-12-17T02:37:19.730Z,14.21
2022-12-17T02:38:22.626Z,16.39
2022-12-17T02:39:25.504Z,14.22
2022-12-17T02:40:28.274Z,14.08
2022-12-17T02:41:31.332Z,13.42
2022-12-17T02:42:34.029Z,14.45
2022-12-17T02:43:37.516Z,12.78
2022-12-17T02:44:40.290Z,16.28
2022-12-17T02:45:42.906Z,12.23
2022-12-17T02:46:45.540Z,14.16
2022-12-17T02:47:49.316Z,12.47
2022-12-17T02:48:52.092Z,12.68
2022-12-17T02:49:54.665Z,13.34
2022-12-17T02:50:58.244Z,14.03
2022-12-17T02:52:01.131Z,16.64
2022-12-17T02:53:04.186Z,15.41
2022-12-17T02:54:06.874Z,15.59
2022-12-17T02:55:09.835Z,16.66
2022-12-17T02:56:12.531Z,15.75
2022-12-17T02:57:15.484Z,15.09
2022-12-17T02:58:18.452Z,12.56
2022-12-17T02:59:21.224Z,12.58
2022-12-17T03:00:24.001Z,11.87
2022-12-17T03:01:27.152Z,12.50
2022-12-17T03:02:30.321Z,15.90
2022-12-17T03:03:33.145Z,13.91
2022-12-17T03:04:37.022Z,15.57
2022-12-17T03:05:47.280Z,15.77
2022-12-17T03:06:44.422Z,14.85
2022-12-17T03:07:47.190Z,16.33
2022-12-17T03:08:49.971Z,12.69
2022-12-17T03:09:52.935Z,13.48
2022-12-17T03:10:55.610Z,14.04
2022-12-17T03:11:58.484Z,14.16
2022-12-17T03:13:01.048Z,13.86
2022-12-17T03:14:03.924Z,13.43
2022-12-17T03:15:07.011Z,15.26
2022-12-17T03:16:09.879Z,15.18
2022-12-17T03:17:12.615Z,11.98
2022-12-17T03:18:15.531Z,13.11
2022-12-17T03:19:18.554Z,14.88
2022-12-17T03:20:21.996Z,17.73
2022-12-17T03:21:24.991Z,16.19
2022-12-17T03:22:27.764Z,11.65
2022-12-17T03:23:30.853Z,10.97
2022-12-17T03:24:33.694Z,11.55
2022-12-17T03:25:37.396Z,9.42
2022-12-17T03:26:40.671Z,12.51
2022-12-17T03:27:43.753Z,13.84
2022-12-17T03:28:46.987Z,13.05
2022-12-17T03:29:50.117Z,14.90
2022-12-17T03:30:53.674Z,14.14
2022-12-17T03:31:56.889Z,15.14
2022-12-17T03:33:00.077Z,20.18
2022-12-17T03:34:03.673Z,19.01
2022-12-17T03:35:06.841Z,18.30
2022-12-17T03:36:10.028Z,20.61
2022-12-17T03:37:12.904Z,23.32
2022-12-17T03:38:16.191Z,23.74
2022-12-17T03:39:18.893Z,21.65
2022-12-17T03:40:22.147Z,19.88
2022-12-17T03:41:25.541Z,22.65
2022-12-17T03:42:28.297Z,19.50
2022-12-17T03:43:31.069Z,17.81
2022-12-17T03:44:34.056Z,19.97
2022-12-17T03:45:37.143Z,19.88
2022-12-17T03:46:40.112Z,19.35
2022-12-17T03:47:42.982Z,17.52
2022-12-17T03:48:45.678Z,19.48
2022-12-17T03:49:48.418Z,18.75
2022-12-17T03:50:51.805Z,18.93
2022-12-17T03:51:55.192Z,18.71
2022-12-17T03:52:57.894Z,20.50
2022-12-17T03:54:00.737Z,21.68
2022-12-17T03:55:03.714Z,17.64
2022-12-17T03:56:06.314Z,15.49
2022-12-17T03:57:14.499Z,15.63
2022-12-17T03:58:13.393Z,14.27
2022-12-17T03:59:15.954Z,16.45
2022-12-17T04:00:18.811Z,17.75
2022-12-17T04:01:21.722Z,12.72
2022-12-17T04:02:25.011Z,13.05
2022-12-17T04:03:28.342Z,15.32
2022-12-17T04:04:31.333Z,13.32
2022-12-17T04:05:34.413Z,12.22
2022-12-17T04:06:37.692Z,16.78
2022-12-17T04:07:40.674Z,11.69
2022-12-17T04:08:43.842Z,10.46
2022-12-17T04:09:46.655Z,12.32
2022-12-17T04:10:49.731Z,13.42
2022-12-17T04:11:52.602Z,11.42
2022-12-17T04:12:55.840Z,13.67
2022-12-17T04:13:59.053Z,11.78
2022-12-17T04:15:02.433Z,10.76
2022-12-17T04:16:06.138Z,11.12
2022-12-17T04:17:09.714Z,13.19
2022-12-17T04:18:13.613Z,13.86
2022-12-17T04:19:16.895Z,12.82
2022-12-17T04:20:20.453Z,10.99
2022-12-17T04:21:23.973Z,14.64
2022-12-17T04:22:27.581Z,13.80
2022-12-17T04:23:30.952Z,13.58
2022-12-17T04:24:34.444Z,14.71
2022-12-17T04:25:38.027Z,14.41
2022-12-17T04:26:41.631Z,15.12
2022-12-17T04:27:45.324Z,18.16
2022-12-17T04:28:48.810Z,12.83
2022-12-17T04:29:52.201Z,13.31
2022-12-17T04:30:55.641Z,14.74
2022-12-17T04:31:59.176Z,18.87
2022-12-17T04:33:02.447Z,21.94
2022-12-17T04:34:05.819Z,27.36
2022-12-17T04:35:08.859Z,21.71
2022-12-17T04:36:12.310Z,16.71
2022-12-17T04:37:15.699Z,16.58
2022-12-17T04:38:18.803Z,18.25
2022-12-17T04:39:22.240Z,19.25
2022-12-17T04:40:25.448Z,16.44
2022-12-17T04:41:29.044Z,17.24
2022-12-17T04:42:32.034Z,18.74
2022-12-17T04:43:35.373Z,18.26
2022-12-17T04:44:38.381Z,20.44
2022-12-17T04:45:41.466Z,19.72
2022-12-17T04:46:44.507Z,19.84
2022-12-17T04:47:47.721Z,21.88
2022-12-17T04:48:50.702Z,16.60
2022-12-17T04:49:53.774Z,16.05
2022-12-17T04:50:57.173Z,17.33
2022-12-17T04:52:00.457Z,16.56
2022-12-17T04:53:03.631Z,16.63
2022-12-17T04:54:07.124Z,14.31
2022-12-17T04:55:10.505Z,15.33
2022-12-17T04:56:13.894Z,17.35
2022-12-17T04:57:17.385Z,17.11
2022-12-17T04:58:20.562Z,13.03
2022-12-17T04:59:23.644Z,10.98
2022-12-17T05:00:26.929Z,10.98
2022-12-17T05:01:30.462Z,10.96
2022-12-17T05:02:36.035Z,13.71
2022-12-17T05:03:39.284Z,14.80
2022-12-17T05:04:43.240Z,13.50
2022-12-17T05:05:46.627Z,12.92
2022-12-17T05:06:49.768Z,12.47
2022-12-17T05:07:52.886Z,15.84
2022-12-17T05:08:55.761Z,15.85
2022-12-17T05:09:59.047Z,16.55
2022-12-17T05:11:02.503Z,15.94
2022-12-17T05:12:05.684Z,15.44
2022-12-17T05:13:09.208Z,20.25
2022-12-17T05:14:12.989Z,18.96
2022-12-17T05:15:16.259Z,18.64
2022-12-17T05:16:19.667Z,20.75
2022-12-17T05:17:22.750Z,22.45
2022-12-17T05:18:26.046Z,23.89
2022-12-17T05:19:29.214Z,20.14
2022-12-17T05:20:32.808Z,21.33
2022-12-17T05:21:36.131Z,19.25
2022-12-17T05:22:39.217Z,19.07
2022-12-17T05:23:42.260Z,18.72
2022-12-17T05:24:45.549Z,16.58
2022-12-17T05:25:48.418Z,18.93
2022-12-17T05:26:52.307Z,18.82
2022-12-17T05:27:56.310Z,19.77
2022-12-17T05:28:59.699Z,19.13
2022-12-17T05:30:03.090Z,18.65
2022-12-17T05:31:06.513Z,16.28
2022-12-17T05:32:09.960Z,20.48
2022-12-17T05:33:13.445Z,15.91
2022-12-17T05:34:16.732Z,13.36
2022-12-17T05:35:20.323Z,12.80
2022-12-17T05:36:23.709Z,13.14
2022-12-17T05:37:27.404Z,10.98
2022-12-17T05:38:30.647Z,13.43
2022-12-17T05:39:33.876Z,18.09
2022-12-17T05:40:36.844Z,12.68
2022-12-17T05:41:39.820Z,8.35
2022-12-17T05:42:43.124Z,10.92
2022-12-17T05:43:46.601Z,9.08
2022-12-17T05:44:49.882Z,7.44
2022-12-17T05:45:52.963Z,8.25
2022-12-17T05:46:56.460Z,8.15
2022-12-17T05:48:00.138Z,6.69
2022-12-17T05:49:03.225Z,7.66
2022-12-17T05:50:06.202Z,6.78
2022-12-17T05:51:09.382Z,7.94
2022-12-17T05:52:13.386Z,7.77
2022-12-17T05:53:16.358Z,6.19
2022-12-17T05:54:19.337Z,10.31
2022-12-17T05:55:22.523Z,7.95
2022-12-17T05:56:25.393Z,6.88
2022-12-17T05:57:28.370Z,7.13
2022-12-17T05:58:31.556Z,8.07
2022-12-17T05:59:34.913Z,10.81
2022-12-17T06:00:38.255Z,10.55
2022-12-17T06:01:41.598Z,8.56
2022-12-17T06:02:44.967Z,7.23
2022-12-17T06:03:48.778Z,8.55
2022-12-17T06:04:52.283Z,9.97
2022-12-17T06:05:55.463Z,9.27
2022-12-17T06:06:58.645Z,9.54
2022-12-17T06:08:01.602Z,12.52
2022-12-17T06:09:04.501Z,10.10
2022-12-17T06:10:07.373Z,8.92
2022-12-17T06:11:10.456Z,11.93
2022-12-17T06:12:13.844Z,12.25
2022-12-17T06:13:17.127Z,11.05
2022-12-17T06:14:20.816Z,11.30
2022-12-17T06:15:24.716Z,12.04
2022-12-17T06:16:28.410Z,12.11
2022-12-17T06:17:31.737Z,11.56
2022-12-17T06:18:34.777Z,11.38
2022-12-17T06:19:37.959Z,11.53
2022-12-17T06:20:41.445Z,13.88
2022-12-17T06:21:44.624Z,10.82
2022-12-17T06:22:48.018Z,11.84
2022-12-17T06:23:51.416Z,10.10
2022-12-17T06:24:55.708Z,10.84
2022-12-17T06:25:58.996Z,10.85
2022-12-17T06:27:02.484Z,12.31
2022-12-17T06:28:06.071Z,10.43
2022-12-17T06:29:09.457Z,12.81
2022-12-17T06:30:18.448Z,12.95
2022-12-17T06:31:18.096Z,11.91
2022-12-17T06:32:21.348Z,10.25
2022-12-17T06:33:24.758Z,10.65
2022-12-17T06:34:28.343Z,11.96
2022-12-17T06:35:31.618Z,15.69
2022-12-17T06:36:35.002Z,14.45
2022-12-17T06:37:38.597Z,13.71
2022-12-17T06:38:41.988Z,12.79
2022-12-17T06:39:45.374Z,8.99
2022-12-17T06:40:48.656Z,7.68
2022-12-17T06:41:52.048Z,8.86
2022-12-17T06:42:55.839Z,9.45
2022-12-17T06:43:59.027Z,11.23
2022-12-17T06:45:02.509Z,9.98
2022-12-17T06:46:06.000Z,12.18
2022-12-17T06:47:09.682Z,12.08
2022-12-17T06:48:13.080Z,13.32
2022-12-17T06:49:16.468Z,13.36
2022-12-17T06:50:19.750Z,13.77
2022-12-17T06:51:22.828Z,13.22
2022-12-17T06:52:26.150Z,10.12
2022-12-17T06:53:29.303Z,10.28
2022-12-17T06:54:32.683Z,10.12
2022-12-17T06:55:36.067Z,10.98
2022-12-17T06:56:39.624Z,10.93
2022-12-17T06:57:46.235Z,10.32
2022-12-17T06:58:47.449Z,8.35
2022-12-17T06:59:50.742Z,9.57
2022-12-17T07:00:54.352Z,13.29
2022-12-17T07:01:57.868Z,12.64
2022-12-17T07:03:01.064Z,10.27
2022-12-17T07:04:04.390Z,16.18
2022-12-17T07:05:07.777Z,13.26
2022-12-17T07:06:11.063Z,11.11
2022-12-17T07:07:14.040Z,9.34
2022-12-17T07:08:17.528Z,10.55
2022-12-17T07:09:20.813Z,12.44
2022-12-17T07:10:23.900Z,8.80
2022-12-17T07:11:26.923Z,11.33
2022-12-17T07:12:30.051Z,11.81
2022-12-17T07:13:33.499Z,10.86
2022-12-17T07:14:36.619Z,8.41
2022-12-17T07:15:39.907Z,10.52
2022-12-17T07:16:43.018Z,13.75
2022-12-17T07:17:46.425Z,8.92
2022-12-17T07:18:49.451Z,8.32
2022-12-17T07:19:52.526Z,8.17
2022-12-17T07:20:56.222Z,8.93
2022-12-17T07:21:59.709Z,9.13
2022-12-17T07:23:03.153Z,7.55
2022-12-17T07:24:06.586Z,10.04
2022-12-17T07:25:09.974Z,8.72
2022-12-17T07:26:13.371Z,9.44
2022-12-17T07:27:16.744Z,9.02
2022-12-17T07:28:20.335Z,8.85
2022-12-17T07:29:24.032Z,8.49
2022-12-17T07:30:27.783Z,7.11
2022-12-17T07:31:31.589Z,8.45
2022-12-17T07:32:35.010Z,7.90
2022-12-17T07:33:38.904Z,6.10
2022-12-17T07:34:42.813Z,6.46
2022-12-17T07:35:46.321Z,7.39
2022-12-17T07:36:49.785Z,8.49
2022-12-17T07:37:53.480Z,8.99
2022-12-17T07:38:57.014Z,6.97
2022-12-17T07:40:00.261Z,8.57
2022-12-17T07:41:03.615Z,9.74
2022-12-17T07:42:06.824Z,11.24
2022-12-17T07:43:10.105Z,8.84
2022-12-17T07:44:13.185Z,10.54
2022-12-17T07:45:16.466Z,11.35
2022-12-17T07:46:20.004Z,10.58
2022-12-17T07:47:23.037Z,11.86
2022-12-17T07:48:25.810Z,11.44
2022-12-17T07:49:28.992Z,13.09
2022-12-17T07:50:31.867Z,15.62
2022-12-17T07:51:34.636Z,10.76
2022-12-17T07:52:37.622Z,12.18
2022-12-17T07:53:40.396Z,14.49
2022-12-17T07:54:43.161Z,14.67
2022-12-17T07:55:46.138Z,14.64
2022-12-17T07:56:48.932Z,17.11
2022-12-17T07:57:51.990Z,15.55
2022-12-17T07:58:54.975Z,13.12
2022-12-17T07:59:58.351Z,15.54
2022-12-17T08:01:01.563Z,12.83
2022-12-17T08:02:04.920Z,14.66
2022-12-17T08:03:08.585Z,15.10
2022-12-17T08:04:11.692Z,14.32
2022-12-17T08:05:14.975Z,15.01
2022-12-17T08:06:18.042Z,15.70
2022-12-17T08:07:20.830Z,17.55
2022-12-17T08:08:23.601Z,15.33
2022-12-17T08:09:26.476Z,17.86
2022-12-17T08:10:29.349Z,15.92
2022-12-17T08:11:32.246Z,15.12
2022-12-17T08:12:35.511Z,16.91
2022-12-17T08:13:39.226Z,17.46
2022-12-17T08:14:42.383Z,20.21
2022-12-17T08:15:45.569Z,17.46
2022-12-17T08:16:51.150Z,16.05
2022-12-17T08:17:55.313Z,16.95
2022-12-17T08:18:58.292Z,19.04
2022-12-17T08:20:01.373Z,21.71
2022-12-17T08:21:04.590Z,21.16
2022-12-17T08:22:08.551Z,19.22
2022-12-17T08:23:11.631Z,20.66
2022-12-17T08:24:14.702Z,22.04
2022-12-17T08:25:17.785Z,21.75
2022-12-17T08:26:20.864Z,15.72
2022-12-17T08:27:24.048Z,14.56
2022-12-17T08:28:49.661Z,13.76
2022-12-17T08:29:31.845Z,15.95
2022-12-17T08:30:35.138Z,14.35
2022-12-17T08:31:38.418Z,13.72
2022-12-17T08:32:41.493Z,17.53
2022-12-17T08:33:44.881Z,17.90
2022-12-17T08:34:47.844Z,17.65
2022-12-17T08:35:50.942Z,20.76
2022-12-17T08:36:54.013Z,21.12
2022-12-17T08:37:57.096Z,18.06
2022-12-17T08:39:00.383Z,19.94
2022-12-17T08:40:03.422Z,18.63
2022-12-17T08:41:06.544Z,21.98
2022-12-17T08:42:09.420Z,15.68
2022-12-17T08:43:12.702Z,14.25
2022-12-17T08:44:15.778Z,17.79
2022-12-17T08:45:19.061Z,17.28
2022-12-17T08:46:22.198Z,18.16
2022-12-17T08:47:25.427Z,17.80
2022-12-17T08:48:28.612Z,14.32
2022-12-17T08:49:32.198Z,14.98
2022-12-17T08:50:35.686Z,18.22
2022-12-17T08:51:39.175Z,21.26
2022-12-17T08:52:42.462Z,15.06
2022-12-17T08:53:45.647Z,17.27
2022-12-17T08:54:49.042Z,18.48
2022-12-17T08:55:52.318Z,16.60
2022-12-17T08:56:55.603Z,19.19
2022-12-17T08:58:00.214Z,18.36
2022-12-17T08:59:03.397Z,18.80
2022-12-17T09:00:06.069Z,18.42
2022-12-17T09:01:08.885Z,18.73
2022-12-17T09:02:12.177Z,19.50
2022-12-17T09:03:15.271Z,23.95
2022-12-17T09:04:18.183Z,28.27
2022-12-17T09:05:21.462Z,25.08
2022-12-17T09:06:24.646Z,24.01
2022-12-17T09:07:28.241Z,27.50
2022-12-17T09:08:32.032Z,24.84
2022-12-17T09:09:35.216Z,22.24
2022-12-17T09:10:38.808Z,20.38
2022-12-17T09:11:42.188Z,21.67
2022-12-17T09:12:45.577Z,25.44
2022-12-17T09:13:49.213Z,26.32
2022-12-17T09:14:52.457Z,25.44
2022-12-17T09:15:55.725Z,29.53
2022-12-17T09:16:59.011Z,25.92
2022-12-17T09:18:02.212Z,25.65
2022-12-17T09:19:05.489Z,28.42
2022-12-17T09:20:08.463Z,24.01
2022-12-17T09:21:11.544Z,26.47
2022-12-17T09:22:14.831Z,28.98
2022-12-17T09:23:17.813Z,33.48
2022-12-17T09:24:21.223Z,29.61
2022-12-17T09:25:24.170Z,29.45
2022-12-17T09:26:27.248Z,31.45
2022-12-17T09:27:30.330Z,31.15
2022-12-17T09:28:33.408Z,27.25
2022-12-17T09:29:36.588Z,31.30
2022-12-17T09:30:39.918Z,26.37
2022-12-17T09:31:42.963Z,28.95
2022-12-17T09:32:46.239Z,26.38
2022-12-17T09:33:49.521Z,29.95
2022-12-17T09:34:53.219Z,27.19
2022-12-17T09:35:56.298Z,31.29
2022-12-17T09:36:59.583Z,31.00
2022-12-17T09:38:02.656Z,30.77
2022-12-17T09:39:05.791Z,32.92
2022-12-17T09:40:09.638Z,32.47
2022-12-17T09:41:13.127Z,39.06
2022-12-17T09:42:16.821Z,42.60
2022-12-17T09:43:19.794Z,50.41
2022-12-17T09:44:23.079Z,47.26
2022-12-17T09:45:26.623Z,42.85
2022-12-17T09:46:29.590Z,41.11
2022-12-17T09:47:32.523Z,45.08
2022-12-17T09:48:35.725Z,39.71
2022-12-17T09:49:38.890Z,41.89
2022-12-17T09:50:42.171Z,38.62
2022-12-17T09:51:45.048Z,39.68
2022-12-17T09:52:48.945Z,42.48
2022-12-17T09:53:51.613Z,35.42
2022-12-17T09:55:00.838Z,34.11
2022-12-17T09:55:58.599Z,34.42
2022-12-17T09:57:01.265Z,36.28
2022-12-17T09:58:04.034Z,33.46
2022-12-17T09:59:06.706Z,34.03
2022-12-17T10:00:09.388Z,32.82
2022-12-17T10:01:12.449Z,31.89
2022-12-17T10:02:15.426Z,30.30
2022-12-17T10:03:18.583Z,28.59
2022-12-17T10:04:21.794Z,32.55
2022-12-17T10:05:24.877Z,30.92
2022-12-17T10:06:27.967Z,27.12
2022-12-17T10:07:30.931Z,26.02
2022-12-17T10:08:34.420Z,30.00
2022-12-17T10:09:37.395Z,30.38
2022-12-17T10:10:40.475Z,27.93
2022-12-17T10:11:43.862Z,24.14
2022-12-17T10:12:46.944Z,23.64
2022-12-17T10:13:49.716Z,23.33
2022-12-17T10:14:52.585Z,22.82
2022-12-17T10:15:55.547Z,21.06
2022-12-17T10:16:58.643Z,18.28
2022-12-17T10:18:01.424Z,19.68
2022-12-17T10:19:04.395Z,21.05
2022-12-17T10:20:07.064Z,16.32
2022-12-17T10:21:10.038Z,16.12
2022-12-17T10:22:13.325Z,17.91
2022-12-17T10:23:16.300Z,21.41
2022-12-17T10:24:19.290Z,20.02
2022-12-17T10:25:22.255Z,16.19
2022-12-17T10:26:25.132Z,16.79
2022-12-17T10:27:27.900Z,18.15
2022-12-17T10:28:30.981Z,17.20
2022-12-17T10:29:34.074Z,20.83
2022-12-17T10:30:36.841Z,20.02
2022-12-17T10:31:39.706Z,20.64
2022-12-17T10:32:42.890Z,18.25
2022-12-17T10:33:46.073Z,16.58
2022-12-17T10:34:49.156Z,19.50
2022-12-17T10:35:52.233Z,14.68
2022-12-17T10:36:55.105Z,17.19
2022-12-17T10:37:58.496Z,16.25
2022-12-17T10:39:01.379Z,15.99
2022-12-17T10:40:04.343Z,13.75
2022-12-17T10:41:07.223Z,13.06
2022-12-17T10:42:10.100Z,14.63
2022-12-17T10:43:13.375Z,14.37
2022-12-17T10:44:16.461Z,14.45
2022-12-17T10:45:19.227Z,11.88
2022-12-17T10:46:22.077Z,12.89
2022-12-17T10:47:24.781Z,15.05
2022-12-17T10:48:27.645Z,15.21
2022-12-17T10:49:30.417Z,15.55
2022-12-17T10:50:33.087Z,12.89
2022-12-17T10:51:35.860Z,13.58
2022-12-17T10:52:38.842Z,13.12
2022-12-17T10:53:42.019Z,14.76
2022-12-17T10:54:49.125Z,17.20
2022-12-17T10:55:49.531Z,18.91
2022-12-17T10:56:52.486Z,16.55
2022-12-17T10:57:55.585Z,15.15
2022-12-17T10:58:58.853Z,17.64
2022-12-17T11:00:01.932Z,19.24
2022-12-17T11:01:04.909Z,16.35
2022-12-17T11:02:07.869Z,17.53
2022-12-17T11:03:11.279Z,19.21
2022-12-17T11:04:14.659Z,22.70
2022-12-17T11:05:17.559Z,20.01
2022-12-17T11:06:20.509Z,22.60
2022-12-17T11:07:23.282Z,22.48
2022-12-17T11:08:26.263Z,23.98
2022-12-17T11:09:29.347Z,23.65
2022-12-17T11:10:32.212Z,18.05
2022-12-17T11:11:35.394Z,19.95
2022-12-17T11:12:38.166Z,20.09
2022-12-17T11:13:40.937Z,17.72
2022-12-17T11:14:43.917Z,21.16
2022-12-17T11:15:46.547Z,21.33
2022-12-17T11:16:49.255Z,20.36
2022-12-17T11:17:51.930Z,21.49
2022-12-17T11:18:54.696Z,23.33
2022-12-17T11:19:58.087Z,22.76
2022-12-17T11:21:00.857Z,24.08
2022-12-17T11:22:03.531Z,21.75
2022-12-17T11:23:06.299Z,21.22
2022-12-17T11:24:09.082Z,22.02
2022-12-17T11:25:11.845Z,21.92
2022-12-17T11:26:14.515Z,21.25
2022-12-17T11:27:17.188Z,18.05
2022-12-17T11:28:19.655Z,19.46
2022-12-17T11:29:22.319Z,20.15
2022-12-17T11:30:30.675Z,18.84
2022-12-17T11:31:29.517Z,18.79
2022-12-17T11:32:33.198Z,20.34
2022-12-17T11:33:36.771Z,21.46
2022-12-17T11:34:39.563Z,17.85
2022-12-17T11:35:42.333Z,19.67
2022-12-17T11:36:45.004Z,21.18
2022-12-17T11:37:47.873Z,22.89
2022-12-17T11:38:50.544Z,17.55
2022-12-17T11:39:53.317Z,19.60
2022-12-17T11:40:56.190Z,19.63
2022-12-17T11:41:58.868Z,20.52
2022-12-17T11:43:01.838Z,22.60
2022-12-17T11:44:05.056Z,20.80
2022-12-17T11:45:07.997Z,22.89
2022-12-17T11:46:11.217Z,24.35
2022-12-17T11:47:14.157Z,25.23
2022-12-17T11:48:17.060Z,21.19
2022-12-17T11:49:20.009Z,23.03
2022-12-17T11:50:22.880Z,21.55
2022-12-17T11:51:25.964Z,21.12
2022-12-17T11:52:29.344Z,21.89
2022-12-17T11:53:32.224Z,21.43
2022-12-17T11:54:35.097Z,22.42
2022-12-17T11:55:37.970Z,23.43
2022-12-17T11:56:41.049Z,24.25
2022-12-17T11:57:44.031Z,22.95
2022-12-17T11:58:46.801Z,17.62
2022-12-17T11:59:54.266Z,20.26
2022-12-17T12:00:54.187Z,24.47
2022-12-17T12:01:57.213Z,25.86
2022-12-17T12:03:00.315Z,26.02
2022-12-17T12:04:03.396Z,23.59
2022-12-17T12:05:06.303Z,26.73
2022-12-17T12:06:09.281Z,20.15
2022-12-17T12:07:12.363Z,24.13
2022-12-17T12:08:15.333Z,26.52
2022-12-17T12:09:18.111Z,18.75
2022-12-17T12:10:21.081Z,19.84
2022-12-17T12:11:29.746Z,18.72
2022-12-17T12:12:28.265Z,22.76
2022-12-17T12:13:30.935Z,22.56
2022-12-17T12:14:33.603Z,25.64
2022-12-17T12:15:36.689Z,25.64
2022-12-17T12:16:43.724Z,14.82
2022-12-17T12:17:44.172Z,12.78
2022-12-17T12:18:47.255Z,13.16
2022-12-17T12:19:50.129Z,11.60
2022-12-17T12:20:53.105Z,11.55
2022-12-17T12:21:55.889Z,14.12
2022-12-17T12:23:00.105Z,13.44
2022-12-17T12:24:03.166Z,13.57
2022-12-17T12:25:06.364Z,14.11
2022-12-17T12:26:09.526Z,15.29
2022-12-17T12:27:12.197Z,16.17
2022-12-17T12:28:15.380Z,12.59
2022-12-17T12:29:18.356Z,11.99
2022-12-17T12:30:21.229Z,12.98
2022-12-17T12:31:24.117Z,14.22
2022-12-17T12:32:26.879Z,15.12
2022-12-17T12:33:29.647Z,13.18
2022-12-17T12:34:32.417Z,11.75
2022-12-17T12:35:35.296Z,13.67
2022-12-17T12:36:38.070Z,13.92
2022-12-17T12:37:40.843Z,12.37
2022-12-17T12:38:46.423Z,13.22
2022-12-17T12:39:47.920Z,14.55
2022-12-17T12:40:50.590Z,12.80
2022-12-17T12:41:53.262Z,12.35
2022-12-17T12:42:56.037Z,13.68
2022-12-17T12:43:59.042Z,11.46
2022-12-17T12:45:01.781Z,13.68
2022-12-17T12:46:04.818Z,14.27
2022-12-17T12:47:07.530Z,13.42
2022-12-17T12:48:10.405Z,13.18
2022-12-17T12:49:13.893Z,12.76
2022-12-17T12:50:16.871Z,13.13
2022-12-17T12:51:19.746Z,16.35
2022-12-17T12:52:22.727Z,14.13
2022-12-17T12:53:25.602Z,17.02
2022-12-17T12:54:28.893Z,13.30
2022-12-17T12:55:31.771Z,16.66
2022-12-17T12:56:34.632Z,15.33
2022-12-17T12:57:37.401Z,14.38
2022-12-17T12:58:40.279Z,14.66
2022-12-17T12:59:43.357Z,12.34
2022-12-17T13:00:46.259Z,12.25
2022-12-17T13:01:49.416Z,11.15
2022-12-17T13:02:52.512Z,14.36
2022-12-17T13:03:55.468Z,13.24
2022-12-17T13:04:58.755Z,12.92
2022-12-17T13:06:01.631Z,15.63
2022-12-17T13:07:04.611Z,13.42
2022-12-17T13:08:07.284Z,9.76
2022-12-17T13:09:09.842Z,12.69
2022-12-17T13:10:13.126Z,12.71
2022-12-17T13:11:16.004Z,14.18
2022-12-17T13:12:18.886Z,12.95
2022-12-17T13:13:21.757Z,13.62
2022-12-17T13:14:24.529Z,13.47
2022-12-17T13:15:31.663Z,14.23
2022-12-17T13:16:31.813Z,14.34
2022-12-17T13:17:34.578Z,11.38
2022-12-17T13:18:37.772Z,11.00
2022-12-17T13:19:41.047Z,11.59
2022-12-17T13:20:44.143Z,9.15
2022-12-17T13:21:47.019Z,8.88
2022-12-17T13:22:49.878Z,10.46
2022-12-17T13:23:52.456Z,11.28
2022-12-17T13:24:55.323Z,13.41
2022-12-17T13:25:59.216Z,13.51
2022-12-17T13:27:05.268Z,10.07
2022-12-17T13:28:08.145Z,12.02
2022-12-17T13:29:10.973Z,11.55
2022-12-17T13:30:13.582Z,11.66
2022-12-17T13:31:16.300Z,10.82
2022-12-17T13:32:18.929Z,12.72
2022-12-17T13:33:21.600Z,14.19
2022-12-17T13:34:24.274Z,8.08
2022-12-17T13:35:26.932Z,13.32